KLM785 EHAM-TNCM
Flight info
| Callsign | KLM785 |
|---|---|
| Flight time | N/A |
| Altitude | 36000 |
| Route | BERGI L60 PENIL M144 BAGSO DCT LIMRI/M082F360 DCT 51N020W 49N030W 44N040W/M082F380 34N050W/M082F400 27N056W 22N060W DCT OBIKE/N0472F400 L335 TRNKY ULUBA1 |
| Aircraft | B748/H-SDE3FGHIM1M2RWXY/LB1 |
Departure
| Time | 2026-05-04 08:08 |
|---|---|
| Airport | Amsterdam Airport Schiphol (EHAM) |
Arrival
| Time | N/A |
|---|---|
| Airport | Princess Juliana International Airport (TNCM) |
| Time | Latitude | Longitude | Altitude | Speed | Heading |
|---|---|---|---|---|---|
| 2026-05-04 07:38 | 52.31339 | 4.76988 | 5 ft | 0 kts | 304° |
| 2026-05-04 07:56 | 52.31339 | 4.76989 | 5 ft | 2 kts | 304° |
| 2026-05-04 07:56 | 52.31330 | 4.77012 | 6 ft | 2 kts | 303° |
| 2026-05-04 07:56 | 52.31321 | 4.77034 | 7 ft | 2 kts | 301° |
| 2026-05-04 07:56 | 52.31312 | 4.77057 | 7 ft | 2 kts | 310° |
| 2026-05-04 07:57 | 52.31301 | 4.77076 | 9 ft | 2 kts | 332° |
| 2026-05-04 07:57 | 52.31285 | 4.77084 | 9 ft | 2 kts | 24° |
| 2026-05-04 07:57 | 52.31271 | 4.77070 | 8 ft | 2 kts | 34° |
| 2026-05-04 07:57 | 52.31266 | 4.77065 | 8 ft | 0 kts | 34° |
| 2026-05-04 08:02 | 52.31524 | 4.77201 | 5 ft | 10 kts | 7° |
| 2026-05-04 08:02 | 52.31560 | 4.77235 | 5 ft | 4 kts | 48° |
| 2026-05-04 08:02 | 52.31574 | 4.77283 | 5 ft | 6 kts | 66° |
| 2026-05-04 08:03 | 52.31599 | 4.77361 | 5 ft | 9 kts | 57° |
| 2026-05-04 08:03 | 52.31641 | 4.77460 | 5 ft | 11 kts | 56° |
| 2026-05-04 08:03 | 52.31682 | 4.77565 | 5 ft | 11 kts | 57° |
| 2026-05-04 08:03 | 52.31723 | 4.77653 | 5 ft | 8 kts | 41° |
| 2026-05-04 08:04 | 52.31786 | 4.77692 | 4 ft | 12 kts | 7° |
| 2026-05-04 08:04 | 52.31879 | 4.77700 | 5 ft | 13 kts | 3° |
| 2026-05-04 08:04 | 52.31969 | 4.77711 | 5 ft | 14 kts | 9° |
| 2026-05-04 08:04 | 52.32045 | 4.77777 | 6 ft | 12 kts | 39° |
| 2026-05-04 08:05 | 52.32102 | 4.77864 | 6 ft | 9 kts | 47° |
| 2026-05-04 08:05 | 52.32117 | 4.77914 | 6 ft | 6 kts | 70° |
| 2026-05-04 08:05 | 52.32120 | 4.77958 | 6 ft | 2 kts | 95° |
| 2026-05-04 08:05 | 52.32113 | 4.77983 | 6 ft | 3 kts | 117° |
| 2026-05-04 08:06 | 52.32100 | 4.78001 | 6 ft | 3 kts | 148° |
| 2026-05-04 08:06 | 52.32070 | 4.78015 | 6 ft | 1 kts | 179° |
| 2026-05-04 08:06 | 52.32068 | 4.78014 | 6 ft | 0 kts | 185° |
| 2026-05-04 08:08 | 52.26134 | 4.78403 | 2125 ft | 225 kts | 180° |
| 2026-05-04 08:08 | 52.24659 | 4.77594 | 2815 ft | 223 kts | 207° |
| 2026-05-04 08:10 | 52.21659 | 4.60874 | 9223 ft | 274 kts | 288° |
| 2026-05-04 08:11 | 52.22175 | 4.57921 | 10190 ft | 277 kts | 285° |
| 2026-05-04 08:11 | 52.24807 | 4.52726 | 10941 ft | 333 kts | 325° |
| 2026-05-04 08:11 | 52.26863 | 4.50806 | 11716 ft | 342 kts | 329° |
| 2026-05-04 08:12 | 52.28971 | 4.48965 | 12626 ft | 347 kts | 328° |
| 2026-05-04 08:12 | 52.31050 | 4.46911 | 13499 ft | 351 kts | 324° |
| 2026-05-04 08:12 | 52.33122 | 4.44740 | 14294 ft | 356 kts | 325° |
| 2026-05-04 08:12 | 52.35283 | 4.42704 | 15085 ft | 362 kts | 335° |
| 2026-05-04 08:13 | 52.37748 | 4.41694 | 15855 ft | 371 kts | 350° |
| 2026-05-04 08:13 | 52.40307 | 4.41309 | 16578 ft | 377 kts | 353° |
| 2026-05-04 08:13 | 52.42939 | 4.41005 | 17305 ft | 381 kts | 352° |
| 2026-05-04 08:13 | 52.45589 | 4.40596 | 18034 ft | 385 kts | 351° |
| 2026-05-04 08:14 | 52.48270 | 4.40122 | 18687 ft | 389 kts | 351° |
| 2026-05-04 08:14 | 52.50976 | 4.39680 | 19301 ft | 393 kts | 351° |
| 2026-05-04 08:14 | 52.53713 | 4.39267 | 19907 ft | 397 kts | 351° |
| 2026-05-04 08:16 | 52.72777 | 4.33357 | 23771 ft | 402 kts | 318° |
| 2026-05-04 08:16 | 52.74851 | 4.30304 | 24183 ft | 398 kts | 306° |
| 2026-05-04 08:16 | 52.76466 | 4.26643 | 24606 ft | 393 kts | 294° |
| 2026-05-04 08:17 | 52.77560 | 4.22604 | 25039 ft | 389 kts | 284° |
| 2026-05-04 08:17 | 52.78428 | 4.18357 | 25462 ft | 391 kts | 284° |
| 2026-05-04 08:17 | 52.79288 | 4.14081 | 25913 ft | 393 kts | 283° |
| 2026-05-04 08:17 | 52.80144 | 4.09785 | 26348 ft | 395 kts | 283° |
| 2026-05-04 08:19 | 52.86241 | 3.79148 | 29354 ft | 408 kts | 281° |
| 2026-05-04 08:19 | 52.87123 | 3.74671 | 29780 ft | 409 kts | 281° |
| 2026-05-04 08:20 | 52.88006 | 3.70180 | 30164 ft | 412 kts | 281° |
| 2026-05-04 08:20 | 52.88893 | 3.65662 | 30467 ft | 415 kts | 282° |
| 2026-05-04 08:20 | 52.89786 | 3.61100 | 30735 ft | 418 kts | 282° |
| 2026-05-04 08:20 | 52.90685 | 3.56499 | 30993 ft | 422 kts | 282° |
| 2026-05-04 08:21 | 52.91577 | 3.51919 | 31252 ft | 425 kts | 282° |
| 2026-05-04 08:21 | 52.92486 | 3.47245 | 31524 ft | 428 kts | 283° |
| 2026-05-04 08:21 | 52.93401 | 3.42527 | 31769 ft | 431 kts | 283° |
| 2026-05-04 08:21 | 52.94320 | 3.37778 | 32008 ft | 435 kts | 283° |
| 2026-05-04 08:22 | 52.95245 | 3.32981 | 32245 ft | 438 kts | 283° |
| 2026-05-04 08:22 | 52.96175 | 3.28151 | 32479 ft | 441 kts | 284° |
| 2026-05-04 08:24 | 53.02799 | 2.93376 | 34094 ft | 463 kts | 285° |
| 2026-05-04 08:24 | 53.03763 | 2.88259 | 34283 ft | 466 kts | 285° |
| 2026-05-04 08:24 | 53.04729 | 2.83117 | 34478 ft | 468 kts | 285° |
| 2026-05-04 08:24 | 53.05701 | 2.77933 | 34684 ft | 471 kts | 285° |
| 2026-05-04 08:25 | 53.06663 | 2.72790 | 34918 ft | 473 kts | 285° |
| 2026-05-04 08:25 | 53.07636 | 2.67569 | 35202 ft | 473 kts | 285° |
| 2026-05-04 08:25 | 53.08609 | 2.62334 | 35478 ft | 474 kts | 285° |
| 2026-05-04 08:25 | 53.09581 | 2.57091 | 35751 ft | 475 kts | 285° |
| 2026-05-04 08:26 | 53.10549 | 2.51832 | 36014 ft | 476 kts | 283° |
| 2026-05-04 08:27 | 53.13845 | 2.13829 | 36001 ft | 475 kts | 276° |
| 2026-05-04 08:28 | 53.14713 | 2.02914 | 36009 ft | 476 kts | 276° |
| 2026-05-04 08:28 | 53.15567 | 1.92061 | 36010 ft | 476 kts | 276° |
| 2026-05-04 08:29 | 53.16417 | 1.81112 | 36016 ft | 477 kts | 276° |
| 2026-05-04 08:31 | 53.19714 | 1.37366 | 36026 ft | 477 kts | 276° |
| 2026-05-04 08:33 | 53.22856 | 0.93472 | 36037 ft | 478 kts | 276° |
| 2026-05-04 08:35 | 53.25726 | 0.51187 | 36040 ft | 479 kts | 275° |
| 2026-05-04 08:35 | 53.26447 | 0.40205 | 36044 ft | 479 kts | 275° |
| 2026-05-04 08:37 | 53.28989 | 0.01314 | 36070 ft | 482 kts | 279° |
| 2026-05-04 08:38 | 53.30140 | -0.09663 | 36045 ft | 483 kts | 279° |
| 2026-05-04 08:38 | 53.31279 | -0.20751 | 36052 ft | 484 kts | 279° |
| 2026-05-04 08:40 | 53.35780 | -0.65311 | 36058 ft | 488 kts | 279° |
| 2026-05-04 08:41 | 53.37065 | -0.78355 | 36056 ft | 489 kts | 279° |
| 2026-05-04 08:41 | 53.37984 | -0.87792 | 36066 ft | 490 kts | 279° |
| 2026-05-04 08:42 | 53.39066 | -0.99005 | 36060 ft | 492 kts | 279° |
| 2026-05-04 08:42 | 53.40143 | -1.10322 | 36068 ft | 492 kts | 279° |
| 2026-05-04 08:43 | 53.41221 | -1.21668 | 36067 ft | 493 kts | 279° |
| 2026-05-04 08:43 | 53.42272 | -1.32961 | 36067 ft | 494 kts | 279° |
| 2026-05-04 08:44 | 53.43326 | -1.44339 | 36064 ft | 494 kts | 279° |
| 2026-05-04 08:46 | 53.47435 | -1.89923 | 36058 ft | 497 kts | 279° |
| 2026-05-04 08:46 | 53.48441 | -2.01427 | 36054 ft | 498 kts | 279° |
| 2026-05-04 08:47 | 53.49438 | -2.12947 | 36054 ft | 499 kts | 279° |
| 2026-05-04 08:47 | 53.50424 | -2.24491 | 36055 ft | 499 kts | 279° |
| 2026-05-04 08:48 | 53.51393 | -2.35970 | 36052 ft | 500 kts | 279° |
| 2026-05-04 08:48 | 53.52331 | -2.47220 | 36061 ft | 501 kts | 279° |
| 2026-05-04 08:49 | 53.53288 | -2.58828 | 36055 ft | 501 kts | 279° |
| 2026-05-04 08:50 | 53.56550 | -2.99524 | 36071 ft | 503 kts | 279° |
| 2026-05-04 08:51 | 53.57460 | -3.11198 | 36069 ft | 504 kts | 279° |
| 2026-05-04 08:51 | 53.58360 | -3.22907 | 36063 ft | 504 kts | 279° |
| 2026-05-04 08:52 | 53.59248 | -3.34608 | 36063 ft | 504 kts | 279° |
| 2026-05-04 08:52 | 53.60118 | -3.46226 | 36065 ft | 504 kts | 279° |
| 2026-05-04 08:54 | 53.62707 | -3.93401 | 36075 ft | 508 kts | 276° |
| 2026-05-04 08:55 | 53.63183 | -4.05276 | 36070 ft | 508 kts | 276° |
| 2026-05-04 08:55 | 53.63654 | -4.17155 | 36074 ft | 509 kts | 275° |
| 2026-05-04 09:01 | 53.67787 | -5.42137 | 36078 ft | 508 kts | 275° |
| 2026-05-04 09:01 | 53.67476 | -5.54027 | 36107 ft | 512 kts | 259° |
| 2026-05-04 09:02 | 53.65911 | -5.65840 | 36099 ft | 514 kts | 259° |
| 2026-05-04 09:02 | 53.64350 | -5.77538 | 36092 ft | 514 kts | 259° |
| 2026-05-04 09:03 | 53.62788 | -5.89199 | 36097 ft | 513 kts | 259° |
| 2026-05-04 09:03 | 53.61199 | -6.00915 | 36083 ft | 513 kts | 259° |
| 2026-05-04 09:04 | 53.59602 | -6.12638 | 36083 ft | 514 kts | 258° |
| 2026-05-04 09:04 | 53.58000 | -6.24273 | 36083 ft | 514 kts | 258° |
| 2026-05-04 09:05 | 53.56377 | -6.35990 | 36082 ft | 514 kts | 258° |
| 2026-05-04 09:05 | 53.54739 | -6.47710 | 36083 ft | 515 kts | 258° |
| 2026-05-04 09:06 | 53.53090 | -6.59431 | 36089 ft | 515 kts | 258° |
| 2026-05-04 09:08 | 53.46380 | -7.06187 | 36090 ft | 516 kts | 258° |
| 2026-05-04 09:08 | 53.44684 | -7.17791 | 36093 ft | 515 kts | 258° |
| 2026-05-04 09:09 | 53.42963 | -7.29474 | 36092 ft | 516 kts | 258° |
| 2026-05-04 09:09 | 53.41229 | -7.41158 | 36090 ft | 517 kts | 258° |
| 2026-05-04 09:10 | 53.39483 | -7.52836 | 36089 ft | 517 kts | 258° |
| 2026-05-04 09:10 | 53.37722 | -7.64529 | 36093 ft | 517 kts | 257° |
| 2026-05-04 09:11 | 53.35964 | -7.76119 | 36097 ft | 517 kts | 257° |
| 2026-05-04 09:11 | 53.34183 | -7.87770 | 36093 ft | 517 kts | 257° |
| 2026-05-04 09:12 | 53.32390 | -7.99423 | 36094 ft | 517 kts | 257° |
| 2026-05-04 09:14 | 53.25107 | -8.45915 | 36102 ft | 518 kts | 257° |
| 2026-05-04 09:14 | 53.23267 | -8.57452 | 36099 ft | 517 kts | 257° |
| 2026-05-04 09:15 | 53.21408 | -8.69037 | 36106 ft | 517 kts | 257° |
| 2026-05-04 09:15 | 53.19534 | -8.80628 | 36107 ft | 517 kts | 257° |
| 2026-05-04 09:17 | 53.10989 | -9.32515 | 36117 ft | 517 kts | 256° |
| 2026-05-04 09:18 | 53.09058 | -9.44025 | 36116 ft | 517 kts | 256° |
| 2026-05-04 09:18 | 53.07127 | -9.55459 | 36117 ft | 517 kts | 256° |
| 2026-05-04 09:19 | 53.05174 | -9.66949 | 36121 ft | 516 kts | 256° |
| 2026-05-04 09:19 | 53.03210 | -9.78426 | 36119 ft | 516 kts | 256° |
| 2026-05-04 09:20 | 53.01234 | -9.89899 | 36123 ft | 517 kts | 256° |
| 2026-05-04 09:20 | 52.99261 | -10.01281 | 36124 ft | 517 kts | 256° |
| 2026-05-04 09:21 | 52.97265 | -10.12726 | 36123 ft | 516 kts | 256° |
| 2026-05-04 09:21 | 52.95255 | -10.24175 | 36129 ft | 517 kts | 256° |
| 2026-05-04 09:22 | 52.93234 | -10.35608 | 36138 ft | 517 kts | 256° |
| 2026-05-04 09:22 | 52.91216 | -10.46957 | 36128 ft | 516 kts | 255° |
| 2026-05-04 09:23 | 52.89178 | -10.58348 | 36141 ft | 516 kts | 255° |
| 2026-05-04 09:23 | 52.87129 | -10.69728 | 36127 ft | 516 kts | 255° |
| 2026-05-04 09:25 | 52.78848 | -11.15011 | 36142 ft | 515 kts | 255° |
| 2026-05-04 09:26 | 52.76764 | -11.26233 | 36146 ft | 515 kts | 255° |
| 2026-05-04 09:26 | 52.74653 | -11.37531 | 36154 ft | 515 kts | 255° |
| 2026-05-04 09:27 | 52.72532 | -11.48815 | 36153 ft | 515 kts | 255° |
| 2026-05-04 09:27 | 52.70399 | -11.60099 | 36145 ft | 515 kts | 255° |
| 2026-05-04 09:28 | 52.68272 | -11.71280 | 36156 ft | 515 kts | 255° |
| 2026-05-04 09:28 | 52.66119 | -11.82531 | 36153 ft | 515 kts | 254° |
| 2026-05-04 09:29 | 52.63957 | -11.93764 | 36161 ft | 515 kts | 254° |
| 2026-05-04 09:29 | 52.61782 | -12.04997 | 36163 ft | 514 kts | 254° |
| 2026-05-04 09:30 | 52.59616 | -12.16117 | 36163 ft | 514 kts | 254° |
| 2026-05-04 09:30 | 52.57428 | -12.27288 | 36165 ft | 513 kts | 254° |
| 2026-05-04 09:31 | 52.55232 | -12.38436 | 36166 ft | 513 kts | 254° |
| 2026-05-04 09:31 | 52.53039 | -12.49502 | 36167 ft | 513 kts | 254° |
| 2026-05-04 09:32 | 52.50824 | -12.60616 | 36172 ft | 512 kts | 253° |
| 2026-05-04 09:34 | 52.41866 | -13.04933 | 36179 ft | 512 kts | 253° |
| 2026-05-04 09:34 | 52.39599 | -13.15992 | 36186 ft | 512 kts | 253° |
| 2026-05-04 09:35 | 52.37323 | -13.27033 | 36185 ft | 512 kts | 253° |
| 2026-05-04 09:35 | 52.35052 | -13.37992 | 36189 ft | 512 kts | 253° |
| 2026-05-04 09:37 | 52.25843 | -13.81816 | 36198 ft | 510 kts | 253° |
| 2026-05-04 09:38 | 52.23515 | -13.92746 | 36209 ft | 510 kts | 252° |
| 2026-05-04 09:38 | 52.21179 | -14.03653 | 36208 ft | 510 kts | 252° |
| 2026-05-04 09:39 | 52.18834 | -14.14546 | 36209 ft | 509 kts | 252° |
| 2026-05-04 09:39 | 52.16497 | -14.25346 | 36206 ft | 509 kts | 252° |
| 2026-05-04 09:40 | 52.14136 | -14.36195 | 36205 ft | 508 kts | 252° |
| 2026-05-04 09:40 | 52.11768 | -14.47024 | 36207 ft | 507 kts | 252° |
| 2026-05-04 09:42 | 52.02248 | -14.89988 | 36212 ft | 505 kts | 252° |
| 2026-05-04 09:43 | 51.99872 | -15.00722 | 36223 ft | 503 kts | 256° |
| 2026-05-04 09:43 | 51.97977 | -15.11558 | 36232 ft | 503 kts | 256° |
| 2026-05-04 09:44 | 51.96049 | -15.22473 | 36231 ft | 503 kts | 256° |
| 2026-05-04 09:46 | 51.88272 | -15.65908 | 36235 ft | 503 kts | 255° |
| 2026-05-04 09:46 | 51.86296 | -15.76771 | 36237 ft | 503 kts | 255° |
| 2026-05-04 09:47 | 51.84325 | -15.87552 | 36235 ft | 502 kts | 255° |
| 2026-05-04 09:49 | 51.76336 | -16.30610 | 36235 ft | 500 kts | 255° |
| 2026-05-04 09:51 | 51.69255 | -16.67963 | 36245 ft | 497 kts | 254° |
| 2026-05-04 09:51 | 51.67212 | -16.78603 | 36245 ft | 497 kts | 254° |
| 2026-05-04 09:52 | 51.65160 | -16.89235 | 36244 ft | 497 kts | 254° |
| 2026-05-04 09:52 | 51.63114 | -16.99769 | 36244 ft | 496 kts | 254° |
| 2026-05-04 09:53 | 51.61050 | -17.10345 | 36252 ft | 496 kts | 253° |
| 2026-05-04 09:53 | 51.58974 | -17.20918 | 36254 ft | 496 kts | 253° |
| 2026-05-04 09:54 | 51.56889 | -17.31484 | 36253 ft | 496 kts | 253° |
| 2026-05-04 09:54 | 51.54807 | -17.41974 | 36257 ft | 496 kts | 253° |
| 2026-05-04 09:55 | 51.52705 | -17.52509 | 36256 ft | 495 kts | 253° |
| 2026-05-04 09:55 | 51.50594 | -17.63033 | 36259 ft | 495 kts | 253° |
| 2026-05-04 09:56 | 51.48476 | -17.73530 | 36261 ft | 495 kts | 253° |
| 2026-05-04 09:56 | 51.46365 | -17.83948 | 36261 ft | 494 kts | 253° |
| 2026-05-04 09:57 | 51.44226 | -17.94435 | 36264 ft | 494 kts | 253° |
| 2026-05-04 09:57 | 51.42083 | -18.04896 | 36268 ft | 494 kts | 253° |
| 2026-05-04 09:58 | 51.39945 | -18.15273 | 36270 ft | 494 kts | 253° |
| 2026-05-04 09:58 | 51.37789 | -18.25689 | 36270 ft | 493 kts | 252° |
| 2026-05-04 10:00 | 51.29108 | -18.67068 | 36282 ft | 490 kts | 252° |
| 2026-05-04 10:04 | 51.13719 | -19.38415 | 36297 ft | 484 kts | 251° |
| 2026-05-04 10:04 | 51.11488 | -19.48554 | 36306 ft | 486 kts | 251° |
| 2026-05-04 10:05 | 51.09247 | -19.58694 | 36309 ft | 486 kts | 251° |
| 2026-05-04 10:05 | 51.07006 | -19.68776 | 36316 ft | 487 kts | 252° |
| 2026-05-04 10:06 | 51.04742 | -19.78918 | 36311 ft | 486 kts | 251° |
| 2026-05-04 10:06 | 51.02474 | -19.89031 | 36319 ft | 486 kts | 252° |
| 2026-05-04 10:08 | 50.96218 | -20.24996 | 36340 ft | 484 kts | 258° |
| 2026-05-04 10:08 | 50.94635 | -20.35380 | 36338 ft | 484 kts | 258° |
| 2026-05-04 10:09 | 50.93048 | -20.45684 | 36347 ft | 484 kts | 258° |
| 2026-05-04 10:09 | 50.91444 | -20.56045 | 36339 ft | 484 kts | 258° |
| 2026-05-04 10:10 | 50.89830 | -20.66409 | 36344 ft | 484 kts | 258° |
| 2026-05-04 10:10 | 50.88207 | -20.76753 | 36345 ft | 484 kts | 258° |
| 2026-05-04 10:11 | 50.86586 | -20.87028 | 36348 ft | 484 kts | 258° |
| 2026-05-04 10:11 | 50.84945 | -20.97360 | 36352 ft | 484 kts | 257° |
| 2026-05-04 10:12 | 50.83294 | -21.07681 | 36345 ft | 484 kts | 257° |
| 2026-05-04 10:12 | 50.81636 | -21.17996 | 36346 ft | 484 kts | 257° |
| 2026-05-04 10:13 | 50.79970 | -21.28292 | 36343 ft | 484 kts | 257° |
| 2026-05-04 10:13 | 50.78306 | -21.38518 | 36350 ft | 483 kts | 257° |
| 2026-05-04 10:14 | 50.76620 | -21.48805 | 36357 ft | 484 kts | 257° |
| 2026-05-04 10:16 | 50.69802 | -21.89809 | 36354 ft | 484 kts | 257° |
| 2026-05-04 10:16 | 50.68071 | -22.00063 | 36362 ft | 484 kts | 257° |
| 2026-05-04 10:17 | 50.66333 | -22.10306 | 36366 ft | 484 kts | 257° |
| 2026-05-04 10:19 | 50.59319 | -22.51016 | 36378 ft | 483 kts | 257° |
| 2026-05-04 10:19 | 50.57538 | -22.61206 | 36382 ft | 482 kts | 257° |
| 2026-05-04 10:20 | 50.55753 | -22.71360 | 36380 ft | 482 kts | 257° |
| 2026-05-04 10:20 | 50.53959 | -22.81506 | 36375 ft | 481 kts | 256° |
| 2026-05-04 10:21 | 50.52172 | -22.91557 | 36380 ft | 481 kts | 257° |
| 2026-05-04 10:21 | 50.50364 | -23.01667 | 36382 ft | 480 kts | 256° |
| 2026-05-04 10:22 | 50.47644 | -23.16777 | 36383 ft | 479 kts | 256° |
| 2026-05-04 10:23 | 50.45834 | -23.26762 | 36389 ft | 479 kts | 256° |
| 2026-05-04 10:25 | 50.38479 | -23.66778 | 36393 ft | 478 kts | 256° |
| 2026-05-04 10:25 | 50.36615 | -23.76788 | 36394 ft | 478 kts | 256° |
| 2026-05-04 10:26 | 50.34741 | -23.86792 | 36397 ft | 479 kts | 256° |
| 2026-05-04 10:26 | 50.32861 | -23.96778 | 36401 ft | 478 kts | 256° |
| 2026-05-04 10:27 | 50.30983 | -24.06696 | 36401 ft | 478 kts | 256° |
| 2026-05-04 10:27 | 50.29087 | -24.16659 | 36404 ft | 478 kts | 256° |
| 2026-05-04 10:28 | 50.27185 | -24.26604 | 36404 ft | 477 kts | 256° |
| 2026-05-04 10:28 | 50.25286 | -24.36477 | 36409 ft | 477 kts | 256° |
| 2026-05-04 10:29 | 50.23367 | -24.46405 | 36411 ft | 477 kts | 256° |
| 2026-05-04 10:29 | 50.21441 | -24.56312 | 36409 ft | 477 kts | 256° |
| 2026-05-04 10:30 | 50.19507 | -24.66216 | 36405 ft | 477 kts | 255° |
| 2026-05-04 10:30 | 50.17579 | -24.76033 | 36411 ft | 476 kts | 255° |
| 2026-05-04 10:31 | 50.15629 | -24.85917 | 36415 ft | 477 kts | 255° |
| 2026-05-04 10:32 | 50.08756 | -25.20346 | 36418 ft | 475 kts | 255° |
| 2026-05-04 10:33 | 50.06772 | -25.30173 | 36420 ft | 476 kts | 255° |
| 2026-05-04 10:33 | 50.04779 | -25.39996 | 36422 ft | 476 kts | 255° |